createdAt,value
2019-02-27T00:01:55.824Z,4.10
2019-02-27T00:04:25.334Z,4.10
2019-02-27T00:06:54.932Z,4.00
2019-02-27T00:09:24.434Z,4.00
2019-02-27T00:11:53.897Z,4.00
2019-02-27T00:14:23.446Z,3.90
2019-02-27T00:16:52.959Z,3.90
2019-02-27T00:19:22.481Z,3.90
2019-02-27T00:21:52.001Z,3.80
2019-02-27T00:24:21.493Z,3.80
2019-02-27T00:26:50.982Z,3.70
2019-02-27T00:29:20.502Z,3.70
2019-02-27T00:31:50.052Z,3.70
2019-02-27T00:34:19.605Z,3.60
2019-02-27T00:36:49.666Z,3.60
2019-02-27T00:39:19.140Z,3.50
2019-02-27T00:41:48.643Z,3.50
2019-02-27T00:44:18.176Z,3.40
2019-02-27T00:46:47.673Z,3.40
2019-02-27T00:49:17.204Z,3.40
2019-02-27T00:51:46.753Z,3.30
2019-02-27T00:54:16.276Z,3.30
2019-02-27T00:56:45.785Z,3.20
2019-02-27T00:59:15.299Z,3.20
2019-02-27T01:01:47.300Z,3.20
2019-02-27T01:04:16.042Z,3.20
2019-02-27T01:06:47.558Z,3.10
2019-02-27T01:09:16.769Z,3.10
2019-02-27T01:11:51.413Z,3.10
2019-02-27T01:14:17.619Z,3.10
2019-02-27T01:16:47.753Z,3.00
2019-02-27T01:19:18.333Z,3.00
2019-02-27T01:21:47.816Z,3.00
2019-02-27T01:24:18.040Z,3.00
2019-02-27T01:26:47.691Z,2.90
2019-02-27T01:29:18.136Z,2.90
2019-02-27T01:31:48.283Z,2.90
2019-02-27T01:34:17.793Z,2.90
2019-02-27T01:36:47.329Z,2.90
2019-02-27T01:39:16.845Z,3.00
2019-02-27T01:41:46.320Z,3.00
2019-02-27T01:44:15.871Z,2.90
2019-02-27T01:46:45.373Z,2.90
2019-02-27T01:49:16.127Z,2.90
2019-02-27T01:51:46.382Z,2.90
2019-02-27T01:54:15.907Z,2.80
2019-02-27T01:56:45.408Z,2.80
2019-02-27T01:59:16.874Z,2.80
2019-02-27T02:01:46.162Z,2.80
2019-02-27T02:04:20.050Z,2.70
2019-02-27T02:06:46.960Z,2.70
2019-02-27T02:09:32.642Z,2.80
2019-02-27T02:12:07.872Z,2.80
2019-02-27T02:14:45.341Z,2.70
2019-02-27T02:17:20.456Z,2.70
2019-02-27T02:20:13.848Z,2.70
2019-02-27T02:22:55.157Z,2.70
2019-02-27T02:25:39.547Z,2.60
2019-02-27T02:28:17.733Z,2.70
2019-02-27T02:31:05.387Z,2.70
2019-02-27T02:33:37.268Z,2.60
2019-02-27T02:36:15.393Z,2.60
2019-02-27T02:39:08.382Z,2.60
2019-02-27T02:42:01.618Z,2.60
2019-02-27T02:44:40.160Z,2.60
2019-02-27T02:47:27.673Z,2.50
2019-02-27T02:50:18.494Z,2.50
2019-02-27T02:53:18.043Z,2.40
2019-02-27T02:55:53.291Z,2.40
2019-02-27T02:58:37.652Z,2.40
2019-02-27T03:01:14.032Z,2.30
2019-02-27T03:03:44.541Z,2.30
2019-02-27T03:06:22.969Z,2.30
2019-02-27T03:09:01.012Z,2.30
2019-02-27T03:11:45.410Z,2.20
2019-02-27T03:14:43.741Z,2.20
2019-02-27T03:17:18.289Z,2.20
2019-02-27T03:20:08.463Z,2.20
2019-02-27T03:22:46.977Z,2.20
2019-02-27T03:25:41.786Z,2.20
2019-02-27T03:28:40.949Z,2.20
2019-02-27T03:31:30.529Z,2.10
2019-02-27T03:34:47.870Z,2.10
2019-02-27T03:37:28.894Z,2.00
2019-02-27T03:40:13.311Z,2.00
2019-02-27T03:42:51.554Z,2.00
2019-02-27T03:45:30.713Z,1.90
2019-02-27T03:48:17.658Z,1.90
2019-02-27T03:50:50.914Z,1.90
2019-02-27T03:53:35.555Z,1.90
2019-02-27T03:56:23.045Z,1.90
2019-02-27T03:59:19.704Z,1.90
2019-02-27T04:02:14.614Z,1.90
2019-02-27T04:05:08.188Z,1.80
2019-02-27T04:08:09.106Z,1.90
2019-02-27T04:10:38.706Z,1.80
2019-02-27T04:13:08.233Z,1.80
2019-02-27T04:15:37.901Z,1.80
2019-02-27T04:18:06.340Z,1.80
2019-02-27T04:20:35.888Z,1.70
2019-02-27T04:23:11.256Z,1.70
2019-02-27T04:25:36.565Z,1.60
2019-02-27T04:28:06.157Z,1.60
2019-02-27T04:30:35.694Z,1.60
2019-02-27T04:33:05.244Z,1.60
2019-02-27T04:35:39.491Z,1.60
2019-02-27T04:38:06.028Z,1.60
2019-02-27T04:40:35.544Z,1.60
2019-02-27T04:43:05.082Z,1.60
2019-02-27T04:45:34.646Z,1.50
2019-02-27T04:48:04.210Z,1.50
2019-02-27T04:50:33.682Z,1.50
2019-02-27T04:53:03.173Z,1.50
2019-02-27T04:55:32.847Z,1.50
2019-02-27T04:58:02.409Z,1.50
2019-02-27T05:00:31.944Z,1.50
2019-02-27T05:03:01.461Z,1.50
2019-02-27T05:05:31.238Z,1.50
2019-02-27T05:08:00.808Z,1.50
2019-02-27T05:10:33.808Z,1.40
2019-02-27T05:13:03.432Z,1.40
2019-02-27T05:15:32.920Z,1.40
2019-02-27T05:18:02.466Z,1.40
2019-02-27T05:20:31.982Z,1.40
2019-02-27T05:23:01.487Z,1.30
2019-02-27T05:25:31.015Z,1.30
2019-02-27T05:28:01.446Z,1.30
2019-02-27T05:30:31.597Z,1.30
2019-02-27T05:33:02.111Z,1.30
2019-02-27T05:35:32.489Z,1.30
2019-02-27T05:38:02.994Z,1.30
2019-02-27T05:40:32.482Z,1.20
2019-02-27T05:43:01.989Z,1.20
2019-02-27T05:45:31.513Z,1.20
2019-02-27T05:48:01.095Z,1.20
2019-02-27T05:50:33.991Z,1.10
2019-02-27T05:53:01.848Z,1.10
2019-02-27T05:55:31.355Z,1.10
2019-02-27T05:58:01.646Z,1.10
2019-02-27T06:00:31.785Z,1.20
2019-02-27T06:03:01.269Z,1.10
2019-02-27T06:05:31.032Z,1.10
2019-02-27T06:08:02.322Z,1.10
2019-02-27T06:10:31.838Z,1.10
2019-02-27T06:13:01.413Z,1.00
2019-02-27T06:15:30.953Z,1.00
2019-02-27T06:18:00.458Z,1.00
2019-02-27T06:20:29.956Z,1.00
2019-02-27T06:23:04.175Z,0.90
2019-02-27T06:25:31.514Z,1.00
2019-02-27T06:28:01.560Z,1.00
2019-02-27T06:30:31.379Z,1.00
2019-02-27T06:33:01.057Z,1.00
2019-02-27T06:35:33.558Z,1.00
2019-02-27T06:38:01.806Z,1.00
2019-02-27T06:40:31.321Z,1.00
2019-02-27T06:43:00.803Z,1.00
2019-02-27T06:45:30.348Z,1.00
2019-02-27T06:48:00.036Z,1.00
2019-02-27T06:50:29.540Z,1.00
2019-02-27T06:52:59.031Z,1.00
2019-02-27T06:55:28.849Z,1.00
2019-02-27T06:57:58.385Z,1.00
2019-02-27T07:00:27.949Z,1.00
2019-02-27T07:02:57.537Z,1.00
2019-02-27T07:05:27.093Z,1.10
2019-02-27T07:07:56.618Z,1.10
2019-02-27T07:10:26.248Z,1.20
2019-02-27T07:12:56.868Z,1.20
2019-02-27T07:15:26.408Z,1.30
2019-02-27T07:17:56.074Z,1.40
2019-02-27T07:20:25.595Z,1.40
2019-02-27T07:22:55.096Z,1.50
2019-02-27T07:25:24.657Z,1.60
2019-02-27T07:27:54.182Z,1.60
2019-02-27T07:30:24.042Z,1.70
2019-02-27T07:32:53.588Z,1.80
2019-02-27T07:35:25.476Z,1.90
2019-02-27T07:37:54.495Z,1.90
2019-02-27T07:40:24.044Z,2.00
2019-02-27T07:42:53.552Z,2.10
2019-02-27T07:45:23.555Z,2.10
2019-02-27T07:47:53.140Z,2.20
2019-02-27T07:50:22.826Z,2.40
2019-02-27T07:52:52.450Z,2.50
2019-02-27T07:55:23.653Z,2.70
2019-02-27T07:57:53.299Z,2.80
2019-02-27T08:00:23.342Z,3.00
2019-02-27T08:02:52.862Z,3.10
2019-02-27T08:05:22.460Z,3.30
2019-02-27T08:07:51.969Z,3.40
2019-02-27T08:10:25.367Z,3.50
2019-02-27T08:12:56.477Z,3.70
2019-02-27T08:15:26.292Z,3.80
2019-02-27T08:17:57.990Z,3.90
2019-02-27T08:20:27.124Z,4.10
2019-02-27T08:22:56.809Z,4.30
2019-02-27T08:25:27.447Z,4.40
2019-02-27T08:27:56.957Z,4.60
2019-02-27T08:30:27.873Z,4.90
2019-02-27T08:32:57.362Z,5.20
2019-02-27T08:35:26.898Z,5.50
2019-02-27T08:38:02.533Z,5.70
2019-02-27T08:40:27.680Z,6.00
2019-02-27T08:42:57.177Z,6.30
2019-02-27T08:45:27.679Z,6.50
2019-02-27T08:47:57.324Z,6.70
2019-02-27T08:50:29.299Z,7.00
2019-02-27T08:52:59.092Z,7.30
2019-02-27T08:55:28.744Z,7.60
2019-02-27T08:58:11.402Z,7.80
2019-02-27T09:00:51.783Z,8.10
2019-02-27T09:03:36.473Z,8.40
2019-02-27T09:06:18.699Z,8.70
2019-02-27T09:08:48.319Z,9.00
2019-02-27T09:11:17.805Z,9.20
2019-02-27T09:13:52.301Z,9.60
2019-02-27T09:16:23.016Z,9.80
2019-02-27T09:18:53.050Z,10.00
2019-02-27T09:21:24.922Z,10.30
2019-02-27T09:23:54.949Z,10.50
2019-02-27T09:26:24.508Z,10.80
2019-02-27T09:28:54.205Z,10.90
2019-02-27T09:31:23.715Z,11.10
2019-02-27T09:33:53.880Z,11.30
2019-02-27T09:36:23.540Z,11.40
2019-02-27T09:38:57.421Z,11.60
2019-02-27T09:41:24.237Z,11.80
2019-02-27T09:43:55.000Z,12.10
2019-02-27T09:46:24.576Z,12.30
2019-02-27T09:48:55.806Z,12.50
2019-02-27T09:51:25.364Z,12.70
2019-02-27T09:53:54.881Z,13.00
2019-02-27T09:56:26.115Z,13.20
2019-02-27T09:58:55.652Z,13.40
2019-02-27T10:01:25.249Z,13.60
2019-02-27T10:03:55.536Z,13.80
2019-02-27T10:06:25.228Z,14.00
2019-02-27T10:08:56.383Z,14.20
2019-02-27T10:11:26.605Z,14.40
2019-02-27T10:13:56.109Z,14.60
2019-02-27T10:16:25.690Z,14.80
2019-02-27T10:18:55.912Z,15.00
2019-02-27T10:21:25.498Z,15.10
2019-02-27T10:23:55.032Z,15.30
2019-02-27T10:26:24.519Z,15.60
2019-02-27T10:28:54.069Z,15.60
2019-02-27T10:31:25.945Z,15.70
2019-02-27T10:33:54.834Z,15.80
2019-02-27T10:36:24.378Z,15.90
2019-02-27T10:38:53.951Z,16.00
2019-02-27T10:41:23.441Z,16.30
2019-02-27T10:43:53.954Z,16.50
2019-02-27T10:46:24.346Z,16.50
2019-02-27T10:48:54.070Z,16.60
2019-02-27T10:51:23.585Z,16.70
2019-02-27T10:53:53.182Z,16.90
2019-02-27T10:56:24.227Z,17.10
2019-02-27T10:58:53.902Z,17.30
2019-02-27T11:01:23.451Z,17.50
2019-02-27T11:03:54.603Z,17.50
2019-02-27T11:06:33.460Z,17.80
2019-02-27T11:08:55.445Z,17.90
2019-02-27T11:11:24.944Z,18.00
2019-02-27T11:13:55.403Z,18.10
2019-02-27T11:16:24.972Z,18.20
2019-02-27T11:18:54.510Z,18.30
2019-02-27T11:21:24.038Z,18.40
2019-02-27T11:23:53.545Z,18.50
2019-02-27T11:26:23.075Z,18.60
2019-02-27T11:28:52.588Z,18.60
2019-02-27T11:31:22.133Z,18.70
2019-02-27T11:33:51.649Z,19.00
2019-02-27T11:36:21.181Z,19.00
2019-02-27T11:38:50.690Z,19.10
2019-02-27T11:41:20.215Z,19.20
2019-02-27T11:43:52.701Z,19.10
2019-02-27T11:46:21.960Z,19.10
2019-02-27T11:48:51.510Z,19.20
2019-02-27T11:51:21.319Z,19.40
2019-02-27T11:53:50.803Z,19.40
2019-02-27T11:56:20.899Z,19.50
2019-02-27T11:58:50.429Z,19.60
2019-02-27T12:01:22.162Z,19.80
2019-02-27T12:03:51.158Z,19.90
2019-02-27T12:06:20.655Z,20.00
2019-02-27T12:08:50.176Z,20.00
2019-02-27T12:11:19.710Z,20.00
2019-02-27T12:13:50.273Z,20.20
2019-02-27T12:16:19.812Z,20.20
2019-02-27T12:18:49.320Z,20.20
2019-02-27T12:21:19.701Z,20.00
2019-02-27T12:23:49.248Z,20.00
2019-02-27T12:26:18.761Z,20.00
2019-02-27T12:28:52.441Z,20.10
2019-02-27T12:31:19.516Z,20.30
2019-02-27T12:33:49.063Z,20.40
2019-02-27T12:36:19.472Z,20.40
2019-02-27T12:38:49.003Z,20.60
2019-02-27T12:41:18.500Z,20.60
2019-02-27T12:43:52.219Z,20.80
2019-02-27T12:46:19.440Z,20.90
2019-02-27T12:48:48.924Z,20.90
2019-02-27T12:51:18.419Z,20.80
2019-02-27T12:53:47.954Z,21.00
2019-02-27T12:56:17.475Z,20.90
2019-02-27T12:58:47.057Z,20.90
2019-02-27T13:01:17.003Z,20.90
2019-02-27T13:03:47.561Z,20.60
2019-02-27T13:06:17.084Z,20.60
2019-02-27T13:08:46.626Z,20.70
2019-02-27T13:11:16.151Z,20.60
2019-02-27T13:13:45.658Z,20.60
2019-02-27T13:16:15.205Z,20.60
2019-02-27T13:18:46.473Z,20.60
2019-02-27T13:21:20.147Z,20.70
2019-02-27T13:23:47.377Z,20.80
2019-02-27T13:26:17.077Z,20.80
2019-02-27T13:28:48.830Z,20.70
2019-02-27T13:31:18.045Z,20.70
2019-02-27T13:33:47.645Z,20.70
2019-02-27T13:36:17.292Z,20.70
2019-02-27T13:38:49.480Z,20.80
2019-02-27T13:41:18.937Z,20.90
2019-02-27T13:43:48.483Z,20.80
2019-02-27T13:46:20.212Z,20.70
2019-02-27T13:48:49.212Z,20.80
2019-02-27T13:51:18.811Z,20.70
2019-02-27T13:53:48.357Z,20.60
2019-02-27T13:56:18.828Z,20.60
2019-02-27T13:58:48.361Z,20.60
2019-02-27T14:01:18.151Z,20.60
2019-02-27T14:03:48.396Z,20.70
2019-02-27T14:06:18.435Z,20.80
2019-02-27T14:08:47.989Z,20.80
2019-02-27T14:11:17.524Z,20.70
2019-02-27T14:13:47.008Z,20.60
2019-02-27T14:16:16.563Z,20.60
2019-02-27T14:18:49.757Z,20.60
2019-02-27T14:21:17.339Z,20.60
2019-02-27T14:23:47.819Z,20.60
2019-02-27T14:26:19.289Z,20.60
2019-02-27T14:28:48.813Z,20.60
2019-02-27T14:31:19.606Z,20.60
2019-02-27T14:33:51.222Z,20.60
2019-02-27T14:36:20.307Z,20.50
2019-02-27T14:38:49.823Z,20.50
2019-02-27T14:41:20.280Z,20.40
2019-02-27T14:43:49.827Z,20.20
2019-02-27T14:46:19.693Z,20.30
2019-02-27T14:48:49.210Z,20.20
2019-02-27T14:51:18.701Z,20.20
2019-02-27T14:53:52.025Z,20.20
2019-02-27T14:56:19.481Z,20.10
2019-02-27T14:58:49.068Z,20.00
2019-02-27T15:01:18.573Z,20.00
2019-02-27T15:03:48.225Z,19.90
2019-02-27T15:06:19.266Z,19.90
2019-02-27T15:08:57.756Z,19.90
2019-02-27T15:11:20.137Z,19.80
2019-02-27T15:13:49.766Z,19.80
2019-02-27T15:16:19.269Z,19.80
2019-02-27T15:18:48.808Z,19.70
2019-02-27T15:21:18.849Z,19.70
2019-02-27T15:23:48.427Z,19.60
2019-02-27T15:26:17.926Z,19.50
2019-02-27T15:28:48.184Z,19.50
2019-02-27T15:31:18.086Z,19.50
2019-02-27T15:33:48.885Z,19.40
2019-02-27T15:36:18.582Z,19.20
2019-02-27T15:38:48.108Z,19.20
2019-02-27T15:41:17.684Z,19.20
2019-02-27T15:43:57.489Z,19.10
2019-02-27T15:46:21.715Z,19.10
2019-02-27T15:48:50.442Z,19.10
2019-02-27T15:51:20.012Z,19.00
2019-02-27T15:53:50.031Z,19.00
2019-02-27T15:56:20.296Z,19.00
2019-02-27T15:58:49.820Z,18.90
2019-02-27T16:01:19.407Z,18.80
2019-02-27T16:03:49.003Z,18.70
2019-02-27T16:06:18.511Z,18.60
2019-02-27T16:08:48.512Z,18.60
2019-02-27T16:11:18.010Z,18.50
2019-02-27T16:13:47.564Z,18.50
2019-02-27T16:16:22.261Z,18.40
2019-02-27T16:18:49.451Z,18.30
2019-02-27T16:21:20.940Z,18.30
2019-02-27T16:23:50.423Z,18.20
2019-02-27T16:26:19.941Z,18.10
2019-02-27T16:28:49.639Z,18.00
2019-02-27T16:31:19.159Z,17.90
2019-02-27T16:33:48.698Z,17.90
2019-02-27T16:36:18.267Z,17.80
2019-02-27T16:38:47.804Z,17.70
2019-02-27T16:41:17.382Z,17.50
2019-02-27T16:43:48.207Z,17.40
2019-02-27T16:46:18.177Z,17.30
2019-02-27T16:48:47.712Z,17.10
2019-02-27T16:51:17.213Z,17.00
2019-02-27T16:53:46.742Z,16.90
2019-02-27T16:56:16.463Z,16.70
2019-02-27T16:58:45.952Z,16.50
2019-02-27T17:01:15.696Z,16.30
2019-02-27T17:03:52.570Z,16.10
2019-02-27T17:06:18.202Z,15.90
2019-02-27T17:08:47.828Z,15.70
2019-02-27T17:11:17.356Z,15.60
2019-02-27T17:13:49.426Z,15.40
2019-02-27T17:16:18.164Z,15.10
2019-02-27T17:18:47.689Z,14.90
2019-02-27T17:21:21.836Z,14.80
2019-02-27T17:23:48.681Z,14.50
2019-02-27T17:26:18.253Z,14.40
2019-02-27T17:28:48.611Z,14.20
2019-02-27T17:31:18.953Z,14.10
2019-02-27T17:33:48.451Z,13.90
2019-02-27T17:36:17.988Z,13.80
2019-02-27T17:38:49.789Z,13.60
2019-02-27T17:41:18.750Z,13.50
2019-02-27T17:43:51.642Z,13.30
2019-02-27T17:46:20.736Z,13.20
2019-02-27T17:48:50.952Z,13.10
2019-02-27T17:51:20.459Z,13.00
2019-02-27T17:53:49.952Z,12.80
2019-02-27T17:56:19.476Z,12.70
2019-02-27T17:58:48.976Z,12.60
2019-02-27T18:01:24.950Z,12.50
2019-02-27T18:03:51.675Z,12.30
2019-02-27T18:06:21.176Z,12.30
2019-02-27T18:08:52.404Z,12.20
2019-02-27T18:11:22.033Z,12.00
2019-02-27T18:13:53.519Z,11.90
2019-02-27T18:16:24.538Z,11.80
2019-02-27T18:18:54.277Z,11.70
2019-02-27T18:21:23.820Z,11.60
2019-02-27T18:23:55.369Z,11.60
2019-02-27T18:26:24.646Z,11.50
2019-02-27T18:28:54.168Z,11.40
2019-02-27T18:31:26.684Z,11.30
2019-02-27T18:33:54.925Z,11.20
2019-02-27T18:36:24.458Z,11.10
2019-02-27T18:38:54.937Z,11.00
2019-02-27T18:41:24.719Z,10.90
2019-02-27T18:43:54.229Z,10.80
2019-02-27T18:46:24.861Z,10.70
2019-02-27T18:48:55.054Z,10.60
2019-02-27T18:51:24.562Z,10.50
2019-02-27T18:53:54.077Z,10.50
2019-02-27T18:56:23.878Z,10.40
2019-02-27T18:58:55.610Z,10.30
2019-02-27T19:01:24.564Z,10.30
2019-02-27T19:03:54.254Z,10.20
2019-02-27T19:06:23.749Z,10.20
2019-02-27T19:08:53.268Z,10.10
2019-02-27T19:11:23.028Z,10.00
2019-02-27T19:13:52.930Z,10.00
2019-02-27T19:16:22.874Z,9.90
2019-02-27T19:18:52.678Z,9.90
2019-02-27T19:21:22.172Z,9.80
2019-02-27T19:23:52.617Z,9.80
2019-02-27T19:26:22.891Z,9.70
2019-02-27T19:28:52.457Z,9.60
2019-02-27T19:31:22.008Z,9.60
2019-02-27T19:33:51.784Z,9.50
2019-02-27T19:36:21.349Z,9.50
2019-02-27T19:38:51.898Z,9.30
2019-02-27T19:41:21.380Z,9.30
2019-02-27T19:43:54.810Z,9.20
2019-02-27T19:46:22.201Z,9.10
2019-02-27T19:48:51.698Z,9.00
2019-02-27T19:51:21.278Z,9.00
2019-02-27T19:53:50.814Z,8.90
2019-02-27T19:56:20.310Z,8.90
2019-02-27T19:58:51.254Z,8.90
2019-02-27T20:01:21.140Z,8.90
2019-02-27T20:03:50.633Z,8.90
2019-02-27T20:06:20.127Z,8.90
2019-02-27T20:08:49.636Z,8.90
2019-02-27T20:11:19.167Z,8.80
2019-02-27T20:13:48.845Z,8.80
2019-02-27T20:16:20.578Z,8.80
2019-02-27T20:18:54.705Z,8.70
2019-02-27T20:21:21.752Z,8.70
2019-02-27T20:23:51.243Z,8.70
2019-02-27T20:26:21.169Z,8.70
2019-02-27T20:28:50.668Z,8.60
2019-02-27T20:31:21.120Z,8.50
2019-02-27T20:33:50.835Z,8.50
2019-02-27T20:36:20.340Z,8.50
2019-02-27T20:38:50.696Z,8.50
2019-02-27T20:41:21.192Z,8.40
2019-02-27T20:43:50.762Z,8.40
2019-02-27T20:46:20.294Z,8.40
2019-02-27T20:48:49.842Z,8.40
2019-02-27T20:51:19.409Z,8.50
2019-02-27T20:53:48.953Z,8.40
2019-02-27T20:56:18.470Z,8.40
2019-02-27T20:58:51.089Z,8.30
2019-02-27T21:01:19.274Z,8.30
2019-02-27T21:03:48.764Z,8.20
2019-02-27T21:06:18.313Z,8.20
2019-02-27T21:08:47.900Z,8.20
2019-02-27T21:11:17.400Z,8.20
2019-02-27T21:13:49.379Z,8.20
2019-02-27T21:16:18.286Z,8.10
2019-02-27T21:18:47.833Z,8.10
2019-02-27T21:21:19.872Z,8.00
2019-02-27T21:23:48.544Z,8.00
2019-02-27T21:26:19.966Z,7.90
2019-02-27T21:28:58.261Z,7.90
2019-02-27T21:31:26.676Z,7.80
2019-02-27T21:33:51.973Z,7.80
2019-02-27T21:36:21.468Z,7.70
2019-02-27T21:38:51.479Z,7.70
2019-02-27T21:41:21.112Z,7.60
2019-02-27T21:43:50.613Z,7.40
2019-02-27T21:46:20.112Z,7.30
2019-02-27T21:48:50.280Z,7.30
2019-02-27T21:51:19.782Z,7.20
2019-02-27T21:53:49.319Z,7.10
2019-02-27T21:56:18.930Z,7.10
2019-02-27T21:58:48.481Z,7.00
2019-02-27T22:01:19.302Z,7.00
2019-02-27T22:03:49.804Z,6.90
2019-02-27T22:06:19.368Z,6.90
2019-02-27T22:08:48.940Z,6.80
2019-02-27T22:11:18.476Z,6.80
2019-02-27T22:13:48.000Z,6.70
2019-02-27T22:16:17.572Z,6.70
2019-02-27T22:18:47.866Z,6.70
2019-02-27T22:21:19.197Z,6.60
2019-02-27T22:23:48.721Z,6.60
2019-02-27T22:26:18.432Z,6.60
2019-02-27T22:28:51.183Z,6.50
2019-02-27T22:31:27.014Z,6.50
2019-02-27T22:34:06.224Z,6.40
2019-02-27T22:36:35.720Z,6.40
2019-02-27T22:39:06.885Z,6.30
2019-02-27T22:41:43.219Z,6.30
2019-02-27T22:44:15.745Z,6.30
2019-02-27T22:46:56.989Z,6.20
2019-02-27T22:49:26.503Z,6.20
2019-02-27T22:51:59.027Z,6.20
2019-02-27T22:54:33.210Z,6.20
2019-02-27T22:57:22.894Z,6.20
2019-02-27T22:59:52.056Z,6.10
2019-02-27T23:02:22.277Z,6.00
2019-02-27T23:04:52.177Z,6.00
2019-02-27T23:07:21.687Z,6.00
2019-02-27T23:09:51.556Z,6.00
2019-02-27T23:12:21.464Z,6.00
2019-02-27T23:14:52.937Z,6.10
2019-02-27T23:17:22.406Z,6.10
2019-02-27T23:19:52.060Z,6.00
2019-02-27T23:22:21.593Z,6.00
2019-02-27T23:24:51.172Z,6.00
2019-02-27T23:27:20.753Z,6.10
2019-02-27T23:29:50.261Z,6.20
2019-02-27T23:32:19.795Z,6.20
2019-02-27T23:34:49.291Z,6.20
2019-02-27T23:37:18.787Z,6.30
2019-02-27T23:39:48.575Z,6.40
2019-02-27T23:42:18.068Z,6.40
2019-02-27T23:44:48.487Z,6.40
2019-02-27T23:47:18.024Z,6.40
2019-02-27T23:49:47.530Z,6.40
2019-02-27T23:52:19.237Z,6.40
2019-02-27T23:54:48.552Z,6.40
2019-02-27T23:57:18.036Z,6.40
2019-02-27T23:59:47.574Z,6.30
